M I D A S
Marine Information and Data Acquisition System
Tripno 595 of the Zeeleeuw from 2003-09-22 06:35:02 to 2003-09-22 13:17:30
Back to CruiseResearch ActivitiesStationsMapUnderway DataData graphs

EquipmentUnitsComment
TimeDGPSUTC
LatitudeDGPSDM.mWGS84
LongitudeDGPSDM.mWGS84
HeadingGyrodeg 
SOGDGPSknotsSpeed over ground
COGDGPSdegCourse over ground
DepthEcho soundermeters200 kHz
Missing or incorrect values are displayed as -999
Navigation data collected by the RV Zeeleeuw from 2003-09-22 06:35:02 to 2003-09-22 13:17:30
                                                                                    Next 1000 lines
Time Latitude Longitude Heading SOG COG Depth
2003-09-22 06:35:10 51°14.31 2°55.18 312 10.7 306 11.8
2003-09-22 06:35:14 51°14.31 2°55.16 311.7 10.8 307 11.9
2003-09-22 06:35:18 51°14.32 2°55.15 311.7 10.8 307 12.1
2003-09-22 06:35:24 51°14.33 2°55.13 312.1 10.9 308 11.7
2003-09-22 06:35:30 51°14.34 2°55.1 312.9 10.9 308 12
2003-09-22 06:35:34 51°14.35 2°55.09 313.1 10.9 308 12.1
2003-09-22 06:35:38 51°14.36 2°55.07 313.5 10.9 309 11.7
2003-09-22 06:35:44 51°14.37 2°55.05 314.1 11 309 11.6
2003-09-22 06:35:48 51°14.38 2°55.03 314.6 11 310 12
2003-09-22 06:35:54 51°14.39 2°55.01 315.1 11.1 311 12
2003-09-22 06:35:58 51°14.4 2°55 315.5 11.3 311 11.4
2003-09-22 06:36:04 51°14.41 2°54.98 316.8 11.5 314 11.4
2003-09-22 06:36:10 51°14.43 2°54.95 319.2 11.8 317 11.8
2003-09-22 06:36:14 51°14.44 2°54.94 322.2 12 320 11.5
2003-09-22 06:36:18 51°14.45 2°54.93 325.6 12.1 323 11.3
2003-09-22 06:36:24 51°14.46 2°54.91 328.6 12.2 324 10.8
2003-09-22 06:36:28 51°14.47 2°54.9 329.9 12.3 324 10.8
2003-09-22 06:36:34 51°14.49 2°54.88 330.4 12.4 324 10.7
2003-09-22 06:36:38 51°14.5 2°54.86 330.6 12.5 324 10.7
2003-09-22 06:36:44 51°14.52 2°54.84 330.6 12.5 324 10.6
2003-09-22 06:36:50 51°14.54 2°54.82 330.6 12.6 324 10.6
2003-09-22 06:36:54 51°14.55 2°54.81 330.3 12.6 324 10.7
2003-09-22 06:36:58 51°14.56 2°54.8 330.8 12.6 325 10.6
2003-09-22 06:37:04 51°14.58 2°54.78 331.6 12.7 326 10.6
2003-09-22 06:37:08 51°14.59 2°54.77 332.9 12.7 328 10.4
2003-09-22 06:37:14 51°14.61 2°54.75 334.5 12.7 329 10.5
2003-09-22 06:37:18 51°14.62 2°54.74 335.7 12.7 329 10.4
2003-09-22 06:37:24 51°14.64 2°54.72 335.9 12.9 329 10.5
2003-09-22 06:37:28 51°14.65 2°54.71 335.6 13 328 10.5
2003-09-22 06:37:34 51°14.67 2°54.69 334.8 13.1 327 10.5
2003-09-22 06:37:38 51°14.68 2°54.68 334.3 13.2 327 10.3
2003-09-22 06:37:44 51°14.7 2°54.66 333.8 13.3 326 10.4
2003-09-22 06:37:50 51°14.72 2°54.64 333.3 13.4 326 10.4
2003-09-22 06:37:54 51°14.73 2°54.63 333.1 13.4 326 10.5
2003-09-22 06:37:58 51°14.74 2°54.61 332.9 13.5 326 10.3
2003-09-22 06:38:04 51°14.76 2°54.59 333.1 13.5 327 10.4
2003-09-22 06:38:08 51°14.77 2°54.58 333.7 13.5 327 10.3
2003-09-22 06:38:14 51°14.79 2°54.56 334 13.6 328 10.3
2003-09-22 06:38:18 51°14.8 2°54.55 334.5 13.6 328 10.3
2003-09-22 06:38:24 51°14.82 2°54.53 334.9 13.6 329 10.2
2003-09-22 06:38:30 51°14.84 2°54.51 335.1 13.6 328 10.2
2003-09-22 06:38:34 51°14.86 2°54.5 335 13.6 329 10.1
2003-09-22 06:38:38 51°14.87 2°54.49 335.1 13.6 329 10
2003-09-22 06:38:44 51°14.89 2°54.47 335.1 13.6 329 10.2
2003-09-22 06:38:48 51°14.9 2°54.45 335.2 13.6 328 9.9
2003-09-22 06:38:54 51°14.92 2°54.44 334.5 13.6 328 9.9
2003-09-22 06:38:58 51°14.93 2°54.42 334 13.6 327 9.8
2003-09-22 06:39:04 51°14.95 2°54.4 333.8 13.6 327 9.6
2003-09-22 06:39:08 51°14.96 2°54.39 333.7 13.5 327 9.5
2003-09-22 06:39:14 51°14.98 2°54.37 333.5 13.5 327 9.4
2003-09-22 06:39:18 51°15 2°54.36 333.5 13.5 327 9.5
2003-09-22 06:39:24 51°15.01 2°54.34 333.8 13.5 328 9.4
2003-09-22 06:39:28 51°15.03 2°54.33 334.3 13.5 328 9.4
2003-09-22 06:39:34 51°15.05 2°54.31 334.8 13.5 329 9.3
2003-09-22 06:39:38 51°15.06 2°54.29 335.3 13.5 329 9.4
2003-09-22 06:39:44 51°15.08 2°54.28 335.6 13.6 329 9.4
2003-09-22 06:39:46 51°15.09 2°54.27 335.6 13.5 329 9.4
2003-09-22 06:39:54 51°15.11 2°54.24 335.6 13.6 329 9.4
2003-09-22 06:39:58 51°15.12 2°54.23 335.5 13.6 328 9.5
2003-09-22 06:40:04 51°15.14 2°54.21 335.4 13.7 328 9.7
2003-09-22 06:40:08 51°15.16 2°54.2 335 13.7 328 9.6
2003-09-22 06:40:14 51°15.18 2°54.18 334.8 13.7 328 9.7
2003-09-22 06:40:18 51°15.19 2°54.17 334.5 13.7 327 9.8
2003-09-22 06:40:24 51°15.21 2°54.15 334.3 13.8 327 9.9
2003-09-22 06:40:28 51°15.22 2°54.13 334.2 13.7 327 10.1
2003-09-22 06:40:34 51°15.24 2°54.11 333.8 13.8 327 10
2003-09-22 06:40:38 51°15.25 2°54.1 333.8 13.7 327 10.1
2003-09-22 06:40:44 51°15.27 2°54.08 334.1 13.7 328 10.1
2003-09-22 06:40:48 51°15.28 2°54.07 334.5 13.7 328 10.2
2003-09-22 06:40:54 51°15.3 2°54.05 334.6 13.7 328 10.4
2003-09-22 06:40:58 51°15.32 2°54.04 334.6 13.7 327 10.3
2003-09-22 06:41:04 51°15.34 2°54.02 334.3 13.8 327 10.3
2003-09-22 06:41:08 51°15.35 2°54 333.8 13.8 326 10.5
2003-09-22 06:41:14 51°15.37 2°53.98 333.1 13.8 326 10.5
2003-09-22 06:41:18 51°15.38 2°53.97 332.6 13.8 326 10.6
2003-09-22 06:41:24 51°15.4 2°53.95 332.4 13.7 325 10.5
2003-09-22 06:41:30 51°15.42 2°53.93 332.3 13.8 326 10.6
2003-09-22 06:41:34 51°15.43 2°53.91 332.7 13.8 328 10.8
2003-09-22 06:41:38 51°15.44 2°53.9 334.5 13.8 328 10.8
2003-09-22 06:41:44 51°15.46 2°53.88 335.7 13.7 330 11.1
2003-09-22 06:41:48 51°15.48 2°53.87 336.6 13.7 330 11
2003-09-22 06:41:54 51°15.5 2°53.85 337.4 13.7 331 11.1
2003-09-22 06:41:58 51°15.51 2°53.84 337.5 13.7 330 11.2
2003-09-22 06:42:04 51°15.53 2°53.82 337.6 13.7 330 11.2
2003-09-22 06:42:10 51°15.55 2°53.8 337.3 13.7 330 11.4
2003-09-22 06:42:14 51°15.56 2°53.79 337.1 13.7 330 11.3
2003-09-22 06:42:18 51°15.58 2°53.78 337 13.7 330 11.5
2003-09-22 06:42:24 51°15.6 2°53.76 336.9 13.7 330 11.6
2003-09-22 06:42:28 51°15.61 2°53.75 336.9 13.7 330 11.6
2003-09-22 06:42:34 51°15.63 2°53.73 336.9 13.7 330 11.8
2003-09-22 06:42:38 51°15.64 2°53.72 337.5 13.7 330 11.8
2003-09-22 06:42:44 51°15.66 2°53.7 337.5 13.7 330 11.8
2003-09-22 06:42:48 51°15.68 2°53.69 337.5 13.7 330 11.9
2003-09-22 06:42:54 51°15.7 2°53.67 337.5 13.7 330 11.9
2003-09-22 06:42:58 51°15.71 2°53.66 337.5 13.7 330 12.1
2003-09-22 06:43:04 51°15.73 2°53.64 337.5 13.7 330 12.2
2003-09-22 06:43:08 51°15.74 2°53.63 337.3 13.7 330 12.2
2003-09-22 06:43:14 51°15.76 2°53.61 337.3 13.8 329 12.3
2003-09-22 06:43:18 51°15.78 2°53.6 337.2 13.7 330 12.2
2003-09-22 06:43:24 51°15.79 2°53.58 337.1 13.7 329 12.2
2003-09-22 06:43:28 51°15.81 2°53.57 337 13.7 329 12.2
2003-09-22 06:43:34 51°15.83 2°53.55 336.7 13.7 329 12.4
2003-09-22 06:43:38 51°15.84 2°53.54 336.6 13.7 329 12.4
2003-09-22 06:43:44 51°15.86 2°53.52 336.5 13.7 329 12.5
2003-09-22 06:43:48 51°15.87 2°53.51 336.4 13.7 329 12.6
2003-09-22 06:43:54 51°15.89 2°53.49 336.3 13.7 329 12.7
2003-09-22 06:43:58 51°15.91 2°53.47 336.2 13.8 329 12.7
2003-09-22 06:44:04 51°15.93 2°53.45 336.4 13.8 329 12.7
2003-09-22 06:44:08 51°15.94 2°53.44 336.8 13.8 329 12.8
2003-09-22 06:44:14 51°15.96 2°53.42 337.5 13.8 331 12.7
2003-09-22 06:44:18 51°15.97 2°53.41 338 13.8 330 12.9
2003-09-22 06:44:24 51°15.99 2°53.39 338.2 13.8 331 12.8
2003-09-22 06:44:28 51°16 2°53.38 338.4 13.8 330 12.9
2003-09-22 06:44:34 51°16.02 2°53.36 338.3 13.8 331 12.8
2003-09-22 06:44:38 51°16.04 2°53.35 337.9 13.8 330 12.9
2003-09-22 06:44:44 51°16.06 2°53.33 337.5 13.8 330 13
2003-09-22 06:44:48 51°16.07 2°53.32 337.2 13.8 331 13
2003-09-22 06:44:54 51°16.09 2°53.3 338.1 13.8 331 13
2003-09-22 06:44:58 51°16.1 2°53.29 338.9 13.8 332 12.9
2003-09-22 06:45:04 51°16.13 2°53.28 339.8 13.8 333 13.1
2003-09-22 06:45:08 51°16.14 2°53.27 340.6 13.7 334 13.2
2003-09-22 06:45:14 51°16.16 2°53.25 341 13.7 334 13.1
2003-09-22 06:45:18 51°16.17 2°53.24 341.2 13.7 334 13.3
2003-09-22 06:45:24 51°16.19 2°53.22 341.2 13.8 334 13.2
2003-09-22 06:45:28 51°16.21 2°53.21 341 13.8 334 13.3
2003-09-22 06:45:34 51°16.23 2°53.2 340.7 13.8 334 13.4
2003-09-22 06:45:38 51°16.24 2°53.19 340.6 13.7 334 13.3
2003-09-22 06:45:44 51°16.26 2°53.17 340.4 13.7 334 13.4
2003-09-22 06:45:48 51°16.28 2°53.16 340.1 13.7 334 13.4
2003-09-22 06:45:54 51°16.3 2°53.14 339.8 13.7 333 13.3
2003-09-22 06:45:58 51°16.31 2°53.13 339.7 13.7 334 13.4
2003-09-22 06:46:04 51°16.33 2°53.12 340 13.7 334 13.3
2003-09-22 06:46:08 51°16.34 2°53.11 340.2 13.7 334 13.3
2003-09-22 06:46:14 51°16.37 2°53.09 340.2 13.7 334 13.4
2003-09-22 06:46:18 51°16.38 2°53.08 340.4 13.7 335 13.3
2003-09-22 06:46:24 51°16.4 2°53.07 340.4 13.7 335 13.4
2003-09-22 06:46:28 51°16.41 2°53.06 340.7 13.6 334 13.4
2003-09-22 06:46:34 51°16.43 2°53.04 340.7 13.6 335 13.2
2003-09-22 06:46:38 51°16.45 2°53.03 340.7 13.6 335 13.1
2003-09-22 06:46:42 51°16.46 2°53.02 340.8 13.9 335 13.2
2003-09-22 06:46:46 51°16.47 2°53.01 340.7 13.5 334 13.1
2003-09-22 06:46:54 51°16.5 2°52.99 340.3 13.6 334 13.2
2003-09-22 06:46:58 51°16.51 2°52.98 339.9 13.5 333 13
2003-09-22 06:47:04 51°16.53 2°52.96 339.5 13.6 333 12.8
2003-09-22 06:47:08 51°16.55 2°52.95 339.3 13.9 333 12.9
2003-09-22 06:47:14 51°16.57 2°52.93 339.1 13.7 333 12.8
2003-09-22 06:47:18 51°16.58 2°52.92 339.1 13.6 333 12.8
2003-09-22 06:47:24 51°16.6 2°52.91 339.2 13.5 333 12.5
2003-09-22 06:47:28 51°16.62 2°52.9 339.6 13.5 333 12.6
2003-09-22 06:47:34 51°16.64 2°52.88 339.6 13.6 333 12.4
2003-09-22 06:47:38 51°16.65 2°52.87 340 13.5 334 12.3
2003-09-22 06:47:44 51°16.67 2°52.85 339.9 13.5 334 12.2
2003-09-22 06:47:48 51°16.68 2°52.84 339.9 13.6 333 12
2003-09-22 06:47:54 51°16.7 2°52.83 339.9 13.6 333 12
2003-09-22 06:47:58 51°16.71 2°52.82 339.8 13.5 333 11.8
2003-09-22 06:48:02 51°16.73 2°52.8 339.7 13.5 333 11.7
2003-09-22 06:48:06 51°16.74 2°52.79 339.8 13.5 334 11.2
2003-09-22 06:48:14 51°16.77 2°52.77 340.1 13.5 334 10.7
2003-09-22 06:48:18 51°16.78 2°52.76 340.3 13.3 334 10.4
2003-09-22 06:48:24 51°16.8 2°52.75 340.8 13.3 334 10.6
2003-09-22 06:48:28 51°16.82 2°52.74 341.1 13.3 334 10.4
2003-09-22 06:48:34 51°16.84 2°52.72 341.1 13.4 334 10.5
2003-09-22 06:48:38 51°16.85 2°52.71 341.1 13.5 334 10.5
2003-09-22 06:48:44 51°16.87 2°52.7 340.7 13.4 333 10.2
2003-09-22 06:48:50 51°16.89 2°52.68 340 13.4 333 10.5
2003-09-22 06:48:54 51°16.9 2°52.67 339.7 13.4 333 10.5
2003-09-22 06:48:58 51°16.91 2°52.66 339.6 13.4 333 10.6
2003-09-22 06:49:04 51°16.93 2°52.64 339.8 13.4 333 10.7
2003-09-22 06:49:08 51°16.95 2°52.63 340.4 13.5 334 11
2003-09-22 06:49:14 51°16.97 2°52.61 340.5 13.7 333 11.2
2003-09-22 06:49:18 51°16.98 2°52.6 340.5 13.7 334 11.1
2003-09-22 06:49:24 51°17 2°52.59 340.4 13.6 333 11
2003-09-22 06:49:28 51°17.02 2°52.58 340.3 13.6 333 10.7
2003-09-22 06:49:34 51°17.04 2°52.56 340.4 13.5 333 10.6
2003-09-22 06:49:38 51°17.05 2°52.55 340.4 13.5 334 10.5
2003-09-22 06:49:44 51°17.07 2°52.53 340.4 13.4 333 10.4
2003-09-22 06:49:48 51°17.08 2°52.52 340.1 13.5 333 10.6
2003-09-22 06:49:54 51°17.1 2°52.51 339.9 13.5 333 10.6
2003-09-22 06:49:58 51°17.12 2°52.5 339.8 13.5 333 10.6
2003-09-22 06:50:04 51°17.14 2°52.48 340 13.5 333 10.8
2003-09-22 06:50:08 51°17.15 2°52.47 340.2 13.6 334 10.8
2003-09-22 06:50:14 51°17.17 2°52.45 340.3 13.6 333 11
2003-09-22 06:50:18 51°17.18 2°52.44 340.2 13.6 334 10.7
2003-09-22 06:50:24 51°17.2 2°52.43 340.2 13.6 333 11
2003-09-22 06:50:28 51°17.22 2°52.42 339.9 13.6 333 10.9
2003-09-22 06:50:34 51°17.24 2°52.4 340 13.6 334 11.1
2003-09-22 06:50:38 51°17.25 2°52.39 340 13.6 332 11
2003-09-22 06:50:44 51°17.27 2°52.37 339.8 13.6 333 11.2
2003-09-22 06:50:48 51°17.29 2°52.36 340 13.6 333 11.4
2003-09-22 06:50:54 51°17.31 2°52.35 340 13.6 333 11.4
2003-09-22 06:50:58 51°17.32 2°52.33 340 13.5 333 11.4
2003-09-22 06:51:04 51°17.34 2°52.32 340 13.6 332 11.3
2003-09-22 06:51:08 51°17.35 2°52.31 340 13.5 332 11.5
2003-09-22 06:51:14 51°17.37 2°52.29 337.8 13.5 327 11.4
2003-09-22 06:51:18 51°17.38 2°52.27 334.3 13.5 323 11.3
2003-09-22 06:51:24 51°17.4 2°52.25 330.7 13.5 321 11.4
2003-09-22 06:51:28 51°17.41 2°52.23 327.9 13.5 320 11.4
2003-09-22 06:51:34 51°17.43 2°52.21 326.1 13.6 318 11.6
2003-09-22 06:51:38 51°17.44 2°52.19 324.9 13.6 318 11.5
2003-09-22 06:51:44 51°17.46 2°52.17 324.2 13.6 316 11.5
2003-09-22 06:51:48 51°17.47 2°52.15 323.7 13.6 316 11.3
2003-09-22 06:51:54 51°17.49 2°52.13 323.4 13.6 316 11.7
2003-09-22 06:51:58 51°17.5 2°52.11 323.3 13.6 316 11.6
2003-09-22 06:52:04 51°17.51 2°52.09 323 13.6 316 11.5
2003-09-22 06:52:08 51°17.52 2°52.07 322.8 13.6 315 11.6
2003-09-22 06:52:14 51°17.54 2°52.04 322.4 13.6 314 11.6
2003-09-22 06:52:18 51°17.55 2°52.03 321.5 13.6 313 11.5
2003-09-22 06:52:24 51°17.56 2°52 318.7 13.5 309 11.6
2003-09-22 06:52:30 51°17.57 2°51.97 315.9 13.5 307 11.4
2003-09-22 06:52:34 51°17.58 2°51.95 314.1 13.6 306 11.5
2003-09-22 06:52:38 51°17.59 2°51.93 312.6 13.6 304 11.6
2003-09-22 06:52:44 51°17.6 2°51.9 311.6 13.6 304 11.4
2003-09-22 06:52:48 51°17.61 2°51.88 310.8 13.6 304 11.3
2003-09-22 06:52:54 51°17.62 2°51.85 310.5 13.6 304 11.4
2003-09-22 06:52:58 51°17.63 2°51.83 310.7 13.5 304 11.3
2003-09-22 06:53:04 51°17.65 2°51.8 311.3 13.3 304 11.3
2003-09-22 06:53:10 51°17.66 2°51.77 311.3 13.3 304 11.1
2003-09-22 06:53:14 51°17.67 2°51.75 311.3 13.2 304 11.3
2003-09-22 06:53:18 51°17.67 2°51.73 311 13.2 304 11.2
2003-09-22 06:53:24 51°17.69 2°51.7 310.8 13.1 305 11.3
2003-09-22 06:53:30 51°17.7 2°51.68 311.4 13.1 306 11.3
2003-09-22 06:53:34 51°17.71 2°51.66 312 13.1 306 11.2
2003-09-22 06:53:38 51°17.72 2°51.64 312.7 13 307 11.2
2003-09-22 06:53:44 51°17.73 2°51.61 312.8 12.9 306 10.9
2003-09-22 06:53:48 51°17.74 2°51.59 312.8 12.9 306 11
2003-09-22 06:53:54 51°17.75 2°51.56 312.4 13 306 11.3
2003-09-22 06:53:58 51°17.76 2°51.55 312 13 305 11.3
2003-09-22 06:54:04 51°17.77 2°51.52 311.6 12.9 305 11.1
2003-09-22 06:54:08 51°17.78 2°51.5 311.6 12.9 305 11.2
2003-09-22 06:54:14 51°17.79 2°51.47 311.9 12.9 306 11.1
2003-09-22 06:54:18 51°17.8 2°51.45 312.3 12.9 306 11.3
2003-09-22 06:54:24 51°17.81 2°51.43 312.8 12.9 306 11.5
2003-09-22 06:54:28 51°17.82 2°51.41 312.7 12.9 306 11.5
2003-09-22 06:54:34 51°17.83 2°51.38 312.5 13 305 11.6
2003-09-22 06:54:38 51°17.84 2°51.36 312 13 305 11.6
2003-09-22 06:54:44 51°17.85 2°51.33 311.8 13 305 11.5
2003-09-22 06:54:50 51°17.87 2°51.3 311.4 13 306 11.8
2003-09-22 06:54:54 51°17.88 2°51.29 312 13 306 11.9
2003-09-22 06:54:58 51°17.88 2°51.27 312.4 12.9 307 11.7
2003-09-22 06:55:04 51°17.9 2°51.24 312.8 12.9 306 11.8
2003-09-22 06:55:08 51°17.91 2°51.22 312.9 12.9 306 12.3
2003-09-22 06:55:14 51°17.92 2°51.19 312.8 13 306 12.3
2003-09-22 06:55:18 51°17.93 2°51.18 312.4 13 306 12.4
2003-09-22 06:55:24 51°17.94 2°51.15 312.2 13 306 12.5
2003-09-22 06:55:28 51°17.95 2°51.13 312 13 306 12.4
2003-09-22 06:55:34 51°17.96 2°51.1 312 13 305 12.9
2003-09-22 06:55:38 51°17.97 2°51.08 311.8 13 306 13
2003-09-22 06:55:44 51°17.98 2°51.05 311.9 13 305 13.1
2003-09-22 06:55:48 51°17.99 2°51.03 312.1 13 306 13.1
2003-09-22 06:55:54 51°18 2°51.01 312.4 13.1 306 13.1
2003-09-22 06:55:58 51°18.01 2°50.99 312.6 13.1 307 13.5
2003-09-22 06:56:04 51°18.02 2°50.96 313.2 13.1 306 13.5
2003-09-22 06:56:08 51°18.03 2°50.94 313 13.1 306 13.6
2003-09-22 06:56:14 51°18.05 2°50.91 313 13 306 13.6
2003-09-22 06:56:18 51°18.05 2°50.9 312.9 13 306 13.7
2003-09-22 06:56:24 51°18.07 2°50.87 312.8 13 306 13.6
2003-09-22 06:56:28 51°18.08 2°50.85 312.8 13 306 13.9
2003-09-22 06:56:34 51°18.09 2°50.82 312.7 13.1 306 14.1
2003-09-22 06:56:38 51°18.1 2°50.8 312.4 13.1 305 13.8
2003-09-22 06:56:44 51°18.11 2°50.77 312.3 13.1 306 14.2
2003-09-22 06:56:50 51°18.12 2°50.75 312.6 13.1 306 13.9
2003-09-22 06:56:54 51°18.13 2°50.73 312.5 13.1 306 14.1
2003-09-22 06:56:58 51°18.14 2°50.71 312.5 13 306 14.3
2003-09-22 06:57:04 51°18.15 2°50.68 312 13 306 14.4
2003-09-22 06:57:08 51°18.16 2°50.66 312.3 13.1 306 14.3
2003-09-22 06:57:14 51°18.17 2°50.63 312.8 13.1 306 14.6
2003-09-22 06:57:18 51°18.18 2°50.62 312.8 13.1 306 14.6
2003-09-22 06:57:24 51°18.19 2°50.59 313 13.1 306 14.5
2003-09-22 06:57:26 51°18.2 2°50.58 313 13.1 306 14.5
2003-09-22 06:57:34 51°18.22 2°50.54 312.6 13.1 306 14.8
2003-09-22 06:57:38 51°18.22 2°50.52 312.6 13.1 306 14.6
2003-09-22 06:57:44 51°18.24 2°50.49 312.2 13.1 307 14.9
2003-09-22 06:57:48 51°18.25 2°50.48 312.8 13.1 306 14.9
2003-09-22 06:57:54 51°18.26 2°50.45 312.8 13.1 307 15.1
2003-09-22 06:57:58 51°18.27 2°50.43 312.8 13.1 306 15.1
2003-09-22 06:58:04 51°18.28 2°50.4 312.8 13 306 15.1
2003-09-22 06:58:08 51°18.29 2°50.38 312.4 13 307 15.5
2003-09-22 06:58:14 51°18.3 2°50.35 312.6 13.1 306 15.3
2003-09-22 06:58:18 51°18.31 2°50.34 312.8 13.1 306 15.3
2003-09-22 06:58:24 51°18.32 2°50.31 312.9 13.1 306 15.3
2003-09-22 06:58:28 51°18.33 2°50.29 312.8 13.1 306 15.4
2003-09-22 06:58:34 51°18.35 2°50.26 313 13.1 307 15.4
2003-09-22 06:58:38 51°18.35 2°50.24 313.4 13.1 307 15.5
2003-09-22 06:58:44 51°18.37 2°50.22 313.6 13.1 308 15.5
2003-09-22 06:58:48 51°18.38 2°50.2 313.9 13.1 307 15.4
2003-09-22 06:58:54 51°18.39 2°50.17 314.3 13.1 307 15.4
2003-09-22 06:58:58 51°18.4 2°50.15 313.7 13 307 15.4
2003-09-22 06:59:04 51°18.41 2°50.12 313.5 13.1 307 15.4
2003-09-22 06:59:08 51°18.42 2°50.1 313.2 13.1 307 15.5
2003-09-22 06:59:14 51°18.43 2°50.08 313.1 13 307 15.3
2003-09-22 06:59:18 51°18.44 2°50.06 313.3 13 307 15.3
2003-09-22 06:59:24 51°18.46 2°50.03 313.5 13 307 15.3
2003-09-22 06:59:28 51°18.47 2°50.01 313.6 13 307 15.1
2003-09-22 06:59:34 51°18.48 2°49.98 313.6 13 307 15.2
2003-09-22 06:59:38 51°18.49 2°49.96 313.9 13 308 15
2003-09-22 06:59:44 51°18.51 2°49.93 314 13 308 14.8
2003-09-22 06:59:48 51°18.52 2°49.92 314.2 13 308 14.7
2003-09-22 06:59:54 51°18.53 2°49.89 314.1 13 308 14.4
2003-09-22 06:59:58 51°18.54 2°49.87 313.3 13 307 14.5
2003-09-22 07:00:04 51°18.55 2°49.84 312.8 13 306 14.1
2003-09-22 07:00:08 51°18.56 2°49.82 312.2 13 306 14
2003-09-22 07:00:14 51°18.57 2°49.79 312 13 306 14.2
2003-09-22 07:00:18 51°18.58 2°49.78 311.4 13 305 13.9
2003-09-22 07:00:24 51°18.59 2°49.75 311.1 13 305 13.9
2003-09-22 07:00:28 51°18.6 2°49.73 310.6 13 305 13.8
2003-09-22 07:00:34 51°18.61 2°49.7 310.6 13 305 13.7
2003-09-22 07:00:38 51°18.62 2°49.68 310.6 13 305 13.4
2003-09-22 07:00:44 51°18.63 2°49.65 310.6 13 305 13.3
2003-09-22 07:00:50 51°18.65 2°49.63 310.6 13 306 13
2003-09-22 07:00:54 51°18.65 2°49.61 310.6 13 305 12.7
2003-09-22 07:00:58 51°18.66 2°49.59 310.6 13 305 12.1
2003-09-22 07:01:04 51°18.68 2°49.56 310.8 12.9 306 12
2003-09-22 07:01:08 51°18.68 2°49.54 311.1 12.9 306 12.4
2003-09-22 07:01:14 51°18.7 2°49.51 311.2 12.9 306 12.1
2003-09-22 07:01:18 51°18.7 2°49.5 311.3 13 306 12
2003-09-22 07:01:24 51°18.72 2°49.47 311.3 12.9 306 11.8
2003-09-22 07:01:28 51°18.73 2°49.45 311.3 12.9 306 11.6
2003-09-22 07:01:34 51°18.74 2°49.42 310.9 12.9 306 11.6
2003-09-22 07:01:38 51°18.75 2°49.4 310.7 12.9 306 11.5
2003-09-22 07:01:44 51°18.76 2°49.38 310.8 12.9 307 11.6
2003-09-22 07:01:48 51°18.77 2°49.36 311.3 12.9 306 11.9
2003-09-22 07:01:54 51°18.78 2°49.33 311.3 13 307 11.9
2003-09-22 07:01:58 51°18.79 2°49.31 311.7 12.9 307 11.9
2003-09-22 07:02:04 51°18.8 2°49.28 311.7 13 307 12.5
2003-09-22 07:02:08 51°18.81 2°49.27 312.1 13 307 12.6
2003-09-22 07:02:14 51°18.82 2°49.24 311.8 13 306 12.5
2003-09-22 07:02:18 51°18.83 2°49.22 311.3 13 306 12.2
2003-09-22 07:02:24 51°18.84 2°49.19 310.9 13 306 12.5
2003-09-22 07:02:28 51°18.85 2°49.17 310.7 13 306 12.5
2003-09-22 07:02:34 51°18.87 2°49.14 310.7 13 306 12.2
2003-09-22 07:02:38 51°18.87 2°49.13 310.6 13 306 12.6
2003-09-22 07:02:44 51°18.89 2°49.1 310 13 305 12.7
2003-09-22 07:02:48 51°18.89 2°49.08 310.3 13 306 13
2003-09-22 07:02:54 51°18.91 2°49.05 310.4 13 305 12.8
2003-09-22 07:02:58 51°18.92 2°49.03 310.4 13 306 13
2003-09-22 07:03:04 51°18.93 2°49 310.5 13 305 12.9
2003-09-22 07:03:08 51°18.94 2°48.99 310.5 13 306 13.4
2003-09-22 07:03:14 51°18.95 2°48.96 310.6 13 306 13.6
2003-09-22 07:03:18 51°18.96 2°48.94 310.8 13 306 13.9
2003-09-22 07:03:24 51°18.97 2°48.91 311 13.1 306 13.9
2003-09-22 07:03:28 51°18.98 2°48.89 310.9 13 305 14.2
2003-09-22 07:03:34 51°18.99 2°48.86 310.7 13.1 305 14.5
2003-09-22 07:03:38 51°19 2°48.85 310.6 13.1 306 14.9
2003-09-22 07:03:44 51°19.01 2°48.82 310.6 13 305 15.3
2003-09-22 07:03:48 51°19.02 2°48.8 310.9 13 306 15.3
2003-09-22 07:03:54 51°19.03 2°48.77 311.2 13.1 306 15.6
2003-09-22 07:03:58 51°19.04 2°48.75 311.4 13.1 306 15.7
2003-09-22 07:04:04 51°19.05 2°48.72 311.7 13.1 306 15.8
2003-09-22 07:04:08 51°19.06 2°48.71 311.9 13.1 306 15.7
2003-09-22 07:04:14 51°19.08 2°48.68 311.8 13.1 307 15.9
2003-09-22 07:04:18 51°19.08 2°48.66 311.6 13.1 306 16.1
2003-09-22 07:04:24 51°19.1 2°48.63 311.3 13.1 306 16.2
2003-09-22 07:04:28 51°19.1 2°48.61 311.1 13.1 305 16.4
2003-09-22 07:04:34 51°19.12 2°48.58 310.9 13.1 306 16.5
2003-09-22 07:04:38 51°19.13 2°48.56 310.7 13.1 304 16.9
2003-09-22 07:04:44 51°19.14 2°48.54 310.7 13.1 306 17
2003-09-22 07:04:48 51°19.15 2°48.52 311.2 13.1 306 17.4
2003-09-22 07:04:54 51°19.16 2°48.49 311.3 13.1 306 17.5
2003-09-22 07:04:58 51°19.17 2°48.47 311.6 13.1 306 17.7
2003-09-22 07:05:04 51°19.18 2°48.44 311.5 13.1 306 18
2003-09-22 07:05:08 51°19.19 2°48.43 311.6 13.1 306 18.2
2003-09-22 07:05:14 51°19.2 2°48.4 311.4 13.1 306 18.4
2003-09-22 07:05:18 51°19.21 2°48.38 311.4 13.1 306 18.4
2003-09-22 07:05:24 51°19.22 2°48.35 311.3 13.2 306 18.8
2003-09-22 07:05:28 51°19.23 2°48.33 311.1 13.2 306 18.9
2003-09-22 07:05:34 51°19.25 2°48.3 311.4 13.2 306 19
2003-09-22 07:05:38 51°19.25 2°48.28 311.1 13.2 305 19.2
2003-09-22 07:05:44 51°19.27 2°48.26 310.5 13.2 305 19.5
2003-09-22 07:05:50 51°19.28 2°48.23 310 13.2 303 19.8
2003-09-22 07:05:54 51°19.29 2°48.21 309.6 13.1 305 19.9
2003-09-22 07:05:58 51°19.29 2°48.19 310.2 13.1 304 19.9
2003-09-22 07:06:04 51°19.31 2°48.16 309.8 13.2 305 20.2
2003-09-22 07:06:08 51°19.32 2°48.14 310.1 13.2 305 20.4
2003-09-22 07:06:14 51°19.33 2°48.11 310.3 13.2 305 20.5
2003-09-22 07:06:18 51°19.34 2°48.09 310.4 13.2 306 20.5
2003-09-22 07:06:24 51°19.35 2°48.06 310.7 13.2 305 20.6
2003-09-22 07:06:28 51°19.36 2°48.04 310.3 13.2 304 20.8
2003-09-22 07:06:34 51°19.37 2°48.01 309.9 13.2 304 21.2
2003-09-22 07:06:38 51°19.38 2°48 309.8 13.2 304 21.3
2003-09-22 07:06:44 51°19.39 2°47.97 309.4 13.3 304 21.6
2003-09-22 07:06:48 51°19.4 2°47.95 309.9 13.2 305 21.6
2003-09-22 07:06:54 51°19.41 2°47.92 309.8 13.2 304 21.9
2003-09-22 07:06:58 51°19.42 2°47.9 310.1 13.2 305 22
2003-09-22 07:07:04 51°19.43 2°47.87 310.1 13.2 304 22
2003-09-22 07:07:08 51°19.44 2°47.85 309.9 13.2 305 22.1
2003-09-22 07:07:14 51°19.45 2°47.82 309.9 13.3 304 22.6
2003-09-22 07:07:18 51°19.46 2°47.8 310 13.3 305 22.6
2003-09-22 07:07:24 51°19.47 2°47.77 310.1 13.2 304 22.7
2003-09-22 07:07:28 51°19.48 2°47.75 310.1 13.3 305 23
2003-09-22 07:07:34 51°19.49 2°47.72 310 13.3 303 23.1
2003-09-22 07:07:38 51°19.5 2°47.7 309.8 13.3 305 23
2003-09-22 07:07:44 51°19.51 2°47.68 310.1 13.2 305 22.9
2003-09-22 07:07:48 51°19.52 2°47.66 310.4 13.2 305 22.9
2003-09-22 07:07:54 51°19.53 2°47.63 310.2 13.2 305 23
2003-09-22 07:07:58 51°19.54 2°47.61 310.2 13.2 304 23.1
2003-09-22 07:08:04 51°19.56 2°47.58 310 13.2 304 23.1
2003-09-22 07:08:08 51°19.56 2°47.56 309.8 13.2 305 23.2
2003-09-22 07:08:14 51°19.58 2°47.53 309.7 13.2 304 23.2
2003-09-22 07:08:18 51°19.58 2°47.51 309.9 13.2 304 23.1
2003-09-22 07:08:24 51°19.6 2°47.48 309.8 13.2 304 23.1
2003-09-22 07:08:28 51°19.6 2°47.46 309.4 13.2 303 23.4
2003-09-22 07:08:34 51°19.62 2°47.43 309.5 13.2 305 23.1
2003-09-22 07:08:38 51°19.63 2°47.42 309.7 13.2 304 23.1
2003-09-22 07:08:44 51°19.64 2°47.39 310.1 13.3 305 23
2003-09-22 07:08:48 51°19.65 2°47.37 310.3 13.3 304 23.1
2003-09-22 07:08:54 51°19.66 2°47.34 310.4 13.3 305 23
2003-09-22 07:08:58 51°19.67 2°47.32 310.2 13.2 304 23
2003-09-22 07:09:04 51°19.68 2°47.29 309.9 13.2 305 23
2003-09-22 07:09:10 51°19.69 2°47.26 309.9 13.3 303 22.9
2003-09-22 07:09:14 51°19.7 2°47.24 309.7 13.2 305 23
2003-09-22 07:09:18 51°19.71 2°47.22 309.7 13.2 304 22.9
2003-09-22 07:09:24 51°19.72 2°47.19 309.9 13.2 305 22.8
2003-09-22 07:09:28 51°19.73 2°47.17 310 13.2 305 22.8
2003-09-22 07:09:34 51°19.74 2°47.15 310.5 13.3 306 22.7
2003-09-22 07:09:38 51°19.75 2°47.13 310.8 13.3 306 22.8
2003-09-22 07:09:44 51°19.76 2°47.1 311 13.2 306 22.5
2003-09-22 07:09:48 51°19.77 2°47.08 310.8 13.2 306 22.5
2003-09-22 07:09:54 51°19.79 2°47.05 311 13.3 306 22.4
2003-09-22 07:09:58 51°19.8 2°47.03 311 13.3 306 22.2
2003-09-22 07:10:04 51°19.81 2°47 310.6 13.2 305 22
2003-09-22 07:10:08 51°19.82 2°46.98 310.5 13.2 305 22
2003-09-22 07:10:14 51°19.83 2°46.95 310.1 13.2 304 21.7
2003-09-22 07:10:18 51°19.84 2°46.94 309.9 13.2 305 21.8
2003-09-22 07:10:24 51°19.85 2°46.91 309.9 13.2 304 21.4
2003-09-22 07:10:28 51°19.86 2°46.89 309.8 13.2 306 21
2003-09-22 07:10:34 51°19.87 2°46.86 310 13.2 304 20.3
2003-09-22 07:10:38 51°19.88 2°46.84 310.1 13.2 306 20.7
2003-09-22 07:10:44 51°19.89 2°46.81 310.4 13.1 305 20.8
2003-09-22 07:10:48 51°19.9 2°46.79 310.5 13.2 306 20.7
2003-09-22 07:10:54 51°19.91 2°46.76 310.6 13.2 306 20.1
2003-09-22 07:10:58 51°19.92 2°46.74 310.6 13.1 306 19.6
2003-09-22 07:11:04 51°19.93 2°46.72 310.3 13.1 306 18.7
2003-09-22 07:11:08 51°19.94 2°46.7 310.4 13.2 306 18.8
2003-09-22 07:11:14 51°19.96 2°46.67 310.3 13.2 306 19.3
2003-09-22 07:11:18 51°19.96 2°46.65 310.6 13.2 306 19
2003-09-22 07:11:24 51°19.98 2°46.62 310.5 13.1 305 16.7
2003-09-22 07:11:28 51°19.98 2°46.6 309.1 13.1 302 17.6
2003-09-22 07:11:34 51°20 2°46.57 307.6 13 302 17.7
2003-09-22 07:11:38 51°20 2°46.55 306.4 13 301 17.9
2003-09-22 07:11:44 51°20.01 2°46.52 305.7 13 301 17.8
2003-09-22 07:11:48 51°20.02 2°46.5 305.5 13 300 16.3
2003-09-22 07:11:54 51°20.03 2°46.47 304.9 13 300 16.8
2003-09-22 07:11:58 51°20.04 2°46.45 304.3 13 300 15.1
2003-09-22 07:12:04 51°20.05 2°46.42 304.3 12.9 299 16.2
2003-09-22 07:12:08 51°20.06 2°46.4 304.1 12.9 298 16.8
2003-09-22 07:12:14 51°20.07 2°46.37 302.6 12.9 296 16.6
2003-09-22 07:12:18 51°20.07 2°46.35 300.5 12.9 295 16.4
2003-09-22 07:12:24 51°20.08 2°46.32 299.4 12.8 294 16.3
2003-09-22 07:12:28 51°20.09 2°46.3 298.2 12.8 293 15.3
2003-09-22 07:12:34 51°20.1 2°46.27 297.7 12.8 293 13.8
2003-09-22 07:12:38 51°20.1 2°46.25 297.4 12.8 293 15.8
2003-09-22 07:12:44 51°20.11 2°46.22 297.1 12.8 293 16.5
2003-09-22 07:12:48 51°20.11 2°46.2 296.9 12.9 293 15.4
2003-09-22 07:12:54 51°20.12 2°46.16 297.3 12.9 293 16.8
2003-09-22 07:12:58 51°20.13 2°46.14 297.3 12.8 293 16.9
2003-09-22 07:13:04 51°20.14 2°46.11 297.7 12.9 293 15.5
2003-09-22 07:13:08 51°20.14 2°46.09 297.4 12.8 293 15.8
2003-09-22 07:13:14 51°20.15 2°46.06 297.5 12.8 293 16.9
2003-09-22 07:13:18 51°20.16 2°46.04 296.4 12.8 290 17.3
2003-09-22 07:13:24 51°20.16 2°46.01 294.3 12.8 288 17.5
2003-09-22 07:13:28 51°20.17 2°45.98 293 12.8 289 17.5
2003-09-22 07:13:34 51°20.17 2°45.95 292.1 12.8 287 16.4
2003-09-22 07:13:38 51°20.18 2°45.93 291.4 12.8 287 16.1
2003-09-22 07:13:44 51°20.18 2°45.9 290.5 12.8 285 17.2
2003-09-22 07:13:48 51°20.19 2°45.88 290.1 12.8 287 16.6
2003-09-22 07:13:54 51°20.19 2°45.84 290.3 12.8 286 17.5
2003-09-22 07:13:58 51°20.2 2°45.82 289.9 12.9 286 18.1
2003-09-22 07:14:04 51°20.2 2°45.79 290.2 12.9 286 19
2003-09-22 07:14:08 51°20.21 2°45.77 290.3 12.9 287 19.5
2003-09-22 07:14:14 51°20.21 2°45.74 290.4 12.9 286 17.2
2003-09-22 07:14:18 51°20.22 2°45.71 290.3 12.9 287 15.2
2003-09-22 07:14:24 51°20.22 2°45.68 290.6 12.8 287 17.2
2003-09-22 07:14:28 51°20.23 2°45.66 290.6 12.8 287 19.8
2003-09-22 07:14:34 51°20.23 2°45.63 290.5 12.9 287 21.1
2003-09-22 07:14:38 51°20.24 2°45.6 290.3 12.9 287 21.8
2003-09-22 07:14:44 51°20.25 2°45.57 290.5 12.9 287 22.4
2003-09-22 07:14:48 51°20.25 2°45.55 290.5 13 287 22.7
2003-09-22 07:14:54 51°20.26 2°45.52 290.5 13 286 23.5
2003-09-22 07:14:58 51°20.26 2°45.49 290.3 13 286 23.1
2003-09-22 07:15:04 51°20.26 2°45.46 289 12.9 284 23.5
2003-09-22 07:15:08 51°20.27 2°45.44 287.9 12.9 283 23.3
2003-09-22 07:15:14 51°20.27 2°45.4 286.8 12.9 283 23.3
2003-09-22 07:15:18 51°20.28 2°45.38 286.3 12.9 282 23.5
2003-09-22 07:15:24 51°20.28 2°45.35 285.9 12.9 282 23.8
2003-09-22 07:15:28 51°20.28 2°45.33 285.3 13 281 24.1
2003-09-22 07:15:34 51°20.29 2°45.29 284.8 13 281 24.9
2003-09-22 07:15:38 51°20.29 2°45.27 285 12.9 281 24.7
2003-09-22 07:15:44 51°20.29 2°45.24 285.1 13 282 24.2
2003-09-22 07:15:48 51°20.3 2°45.21 285.1 13 281 24.4
2003-09-22 07:15:54 51°20.3 2°45.18 284.5 13 280 24.5
2003-09-22 07:15:58 51°20.3 2°45.16 283.8 13 280 25.3
2003-09-22 07:16:04 51°20.31 2°45.12 283.7 13 280 24.9
2003-09-22 07:16:08 51°20.31 2°45.1 283.4 13.2 279 25.5
2003-09-22 07:16:14 51°20.31 2°45.06 283 13.2 279 25.8
2003-09-22 07:16:18 51°20.31 2°45.04 282.8 13.3 279 25.7
2003-09-22 07:16:24 51°20.32 2°45.01 283 13.4 280 25.7
2003-09-22 07:16:28 51°20.32 2°44.98 283.4 13.5 280 25.8
2003-09-22 07:16:34 51°20.32 2°44.95 283.5 13.5 279 26.1
2003-09-22 07:16:38 51°20.33 2°44.92 283 13.5 280 26.1
2003-09-22 07:16:44 51°20.33 2°44.89 282.8 13.5 279 26.1
2003-09-22 07:16:48 51°20.33 2°44.87 283 13.5 280 26.2
2003-09-22 07:16:54 51°20.34 2°44.83 283.5 13.6 280 26.6
2003-09-22 07:16:58 51°20.34 2°44.81 283.8 13.5 280 26.8
2003-09-22 07:17:04 51°20.34 2°44.77 283.9 13.5 281 26.9
2003-09-22 07:17:08 51°20.35 2°44.75 284.2 13.5 280 27.2
2003-09-22 07:17:14 51°20.35 2°44.71 284.2 13.5 280 27.1
2003-09-22 07:17:18 51°20.35 2°44.69 283.7 13.5 279 26
2003-09-22 07:17:24 51°20.36 2°44.65 283.7 13.5 279 26.2
2003-09-22 07:17:28 51°20.36 2°44.63 283.6 13.6 280 26.7
2003-09-22 07:17:34 51°20.36 2°44.59 283.9 13.6 280 26.8
2003-09-22 07:17:38 51°20.37 2°44.57 284.2 13.6 280 27
2003-09-22 07:17:44 51°20.37 2°44.54 284 13.5 280 27.1
2003-09-22 07:17:48 51°20.37 2°44.51 283.8 13.5 280 27.6
2003-09-22 07:17:54 51°20.38 2°44.48 283.4 13.6 279 27.6
2003-09-22 07:17:58 51°20.38 2°44.45 283 13.5 279 27.6
2003-09-22 07:18:04 51°20.38 2°44.42 282.3 13.5 278 27.8
2003-09-22 07:18:08 51°20.38 2°44.39 282.3 13.6 278 27.8
2003-09-22 07:18:14 51°20.39 2°44.36 281.9 13.5 278 27.7
2003-09-22 07:18:18 51°20.39 2°44.33 281.6 13.6 278 28
2003-09-22 07:18:24 51°20.39 2°44.3 281.7 13.6 278 28.1
2003-09-22 07:18:28 51°20.39 2°44.27 282 13.6 278 28.1
2003-09-22 07:18:34 51°20.4 2°44.24 281.9 13.6 278 28.2
2003-09-22 07:18:38 51°20.4 2°44.21 281.9 13.6 278 28
2003-09-22 07:18:44 51°20.4 2°44.18 282.3 13.5 278 28.3
2003-09-22 07:18:48 51°20.4 2°44.16 282.5 13.5 278 28.4
2003-09-22 07:18:54 51°20.41 2°44.12 282.5 13.6 278 28.4
2003-09-22 07:18:58 51°20.41 2°44.1 282.3 13.5 278 28.6
2003-09-22 07:19:04 51°20.41 2°44.06 282.3 13.5 278 28.8
2003-09-22 07:19:10 51°20.42 2°44.03 282.2 13.6 278 28.8
2003-09-22 07:19:14 51°20.42 2°44 282.2 13.6 278 28.8
2003-09-22 07:19:18 51°20.42 2°43.98 282 13.6 278 28.7
2003-09-22 07:19:24 51°20.42 2°43.94 281.9 13.6 277 28.7
2003-09-22 07:19:28 51°20.42 2°43.92 281.6 13.6 277 28.7
2003-09-22 07:19:34 51°20.43 2°43.88 281.5 13.6 278 28.4
2003-09-22 07:19:38 51°20.43 2°43.86 281.6 13.6 278 28.7
2003-09-22 07:19:44 51°20.43 2°43.82 282.1 13.6 278 28.7
2003-09-22 07:19:48 51°20.44 2°43.8 282.4 13.6 279 28.8
2003-09-22 07:19:54 51°20.44 2°43.76 282.6 13.6 278 28.7
2003-09-22 07:19:58 51°20.44 2°43.74 282.4 13.6 279 28.8
2003-09-22 07:20:04 51°20.44 2°43.7 282.1 13.7 278 29
2003-09-22 07:20:08 51°20.45 2°43.68 282 13.6 278 28.8
2003-09-22 07:20:14 51°20.45 2°43.64 282 13.6 278 28.9
2003-09-22 07:20:18 51°20.45 2°43.62 281.6 13.6 278 28.5
2003-09-22 07:20:24 51°20.45 2°43.58 281.6 13.6 278 28.2
2003-09-22 07:20:28 51°20.46 2°43.56 281.6 13.6 278 28.6
2003-09-22 07:20:34 51°20.46 2°43.53 281.7 13.6 278 28.4
2003-09-22 07:20:38 51°20.46 2°43.5 282 13.6 278 28.4
2003-09-22 07:20:44 51°20.47 2°43.47 282 13.5 278 28.3
2003-09-22 07:20:48 51°20.47 2°43.44 282.1 13.5 278 28.2
2003-09-22 07:20:54 51°20.47 2°43.41 282.3 13.5 278 27.9
2003-09-22 07:20:58 51°20.47 2°43.38 282.1 13.5 279 27.7
2003-09-22 07:21:04 51°20.48 2°43.35 282.3 13.5 278 27.5
2003-09-22 07:21:08 51°20.48 2°43.32 282.3 13.5 278 27.2
2003-09-22 07:21:14 51°20.48 2°43.29 282.1 13.5 278 27.3
2003-09-22 07:21:18 51°20.48 2°43.26 282 13.5 278 27.2
2003-09-22 07:21:24 51°20.49 2°43.23 281.7 13.5 278 27
2003-09-22 07:21:28 51°20.49 2°43.2 281.8 13.5 279 26.8
2003-09-22 07:21:34 51°20.49 2°43.17 282.3 13.4 278 26.2
2003-09-22 07:21:38 51°20.49 2°43.15 282.5 13.4 278 26.4
2003-09-22 07:21:44 51°20.5 2°43.11 282.3 13.4 278 26.6
2003-09-22 07:21:48 51°20.5 2°43.09 282 13.4 277 26.5
2003-09-22 07:21:54 51°20.5 2°43.05 281.6 13.3 277 26.1
2003-09-22 07:21:58 51°20.5 2°43.03 281.6 13.4 278 26.3
2003-09-22 07:22:04 51°20.51 2°42.99 281.9 13.3 278 25.8
2003-09-22 07:22:08 51°20.51 2°42.97 282.6 13.3 278 25.1
2003-09-22 07:22:14 51°20.51 2°42.94 282.5 13.3 278 25.2
2003-09-22 07:22:18 51°20.51 2°42.91 282.6 13.3 279 24.6
2003-09-22 07:22:24 51°20.52 2°42.88 282.7 13.3 278 24.4
2003-09-22 07:22:28 51°20.52 2°42.85 282.3 13.2 278 23.3
2003-09-22 07:22:34 51°20.52 2°42.82 281.9 13.3 278 21.4
2003-09-22 07:22:38 51°20.52 2°42.8 282.1 13.2 278 23.6
2003-09-22 07:22:44 51°20.53 2°42.76 282.3 13.3 278 24.3
2003-09-22 07:22:48 51°20.53 2°42.74 282.3 13.3 279 24.4
2003-09-22 07:22:54 51°20.53 2°42.7 282.5 13.3 278 24.4
2003-09-22 07:22:58 51°20.53 2°42.68 282.3 13.2 278 23.9
2003-09-22 07:23:04 51°20.54 2°42.64 282.3 13.2 277 19.9
2003-09-22 07:23:08 51°20.54 2°42.62 282.3 13.2 279 22
2003-09-22 07:23:14 51°20.54 2°42.59 282.9 13.2 278 22.9
2003-09-22 07:23:18 51°20.55 2°42.56 283.1 13.3 279 22.8
2003-09-22 07:23:24 51°20.55 2°42.53 283.1 13.3 279 23.1
2003-09-22 07:23:28 51°20.55 2°42.51 282.9 13.3 278 21
2003-09-22 07:23:34 51°20.55 2°42.47 282.4 13.2 279 21.5
2003-09-22 07:23:38 51°20.56 2°42.45 282.7 13.2 278 22.7
2003-09-22 07:23:44 51°20.56 2°42.41 282.5 13.3 279 21.1
2003-09-22 07:23:48 51°20.56 2°42.39 282.5 13.3 278 20.1
2003-09-22 07:23:54 51°20.57 2°42.35 282.3 13.2 278 20.9
2003-09-22 07:23:58 51°20.57 2°42.33 282.6 13.1 279 21.7
2003-09-22 07:24:04 51°20.57 2°42.3 282.5 13.3 278 20
2003-09-22 07:24:10 51°20.57 2°42.26 282.7 13.2 279 19.8
2003-09-22 07:24:14 51°20.58 2°42.24 282.9 13.1 279 20.3
2003-09-22 07:24:18 51°20.58 2°42.22 283 13.1 279 20.7
2003-09-22 07:24:24 51°20.58 2°42.18 283.3 13.2 279 17.8
2003-09-22 07:24:28 51°20.58 2°42.16 283.5 13.2 280 19.6
2003-09-22 07:24:34 51°20.59 2°42.12 283.6 13.1 279 20.1
2003-09-22 07:24:38 51°20.59 2°42.1 282.6 13.1 279 19.5
2003-09-22 07:24:44 51°20.59 2°42.07 282.5 13.1 278 19.7
2003-09-22 07:24:48 51°20.6 2°42.04 282.3 13.2 278 21.3
2003-09-22 07:24:54 51°20.6 2°42.01 282.1 13.1 278 21.6
2003-09-22 07:24:58 51°20.6 2°41.99 281.8 13.1 278 22.5
2003-09-22 07:25:04 51°20.6 2°41.95 281.9 13.2 278 22
2003-09-22 07:25:10 51°20.61 2°41.92 282 13.2 278 20.7
2003-09-22 07:25:14 51°20.61 2°41.89 282.3 13.2 279 20.2
2003-09-22 07:25:18 51°20.61 2°41.87 282.3 13.2 278 20.8
2003-09-22 07:25:24 51°20.62 2°41.84 282.3 13.2 278 21.4
2003-09-22 07:25:28 51°20.62 2°41.81 281.7 13.2 278 21.3
2003-09-22 07:25:34 51°20.62 2°41.78 281.6 13.2 278 22.2
2003-09-22 07:25:38 51°20.62 2°41.75 281.7 13.2 278 22.9
2003-09-22 07:25:44 51°20.63 2°41.72 282.3 13.2 278 23.4
2003-09-22 07:25:48 51°20.63 2°41.7 282.7 13.2 279 24.1
2003-09-22 07:25:54 51°20.63 2°41.66 282.8 13.2 279 24.5
2003-09-22 07:25:58 51°20.63 2°41.64 282.8 13.2 280 24.5
2003-09-22 07:26:04 51°20.64 2°41.61 283 13.2 279 23.6
2003-09-22 07:26:08 51°20.64 2°41.58 283.1 13.1 280 20.4
2003-09-22 07:26:14 51°20.64 2°41.55 283.2 13.1 280 22.3
2003-09-22 07:26:18 51°20.65 2°41.53 283.5 13.1 280 24
2003-09-22 07:26:24 51°20.65 2°41.49 283 13.1 280 25.1
2003-09-22 07:26:28 51°20.65 2°41.47 283.3 13.1 279 25.6
2003-09-22 07:26:34 51°20.66 2°41.43 283.1 13.1 279 26
2003-09-22 07:26:38 51°20.66 2°41.41 282.5 13.1 279 26.4
2003-09-22 07:26:44 51°20.66 2°41.38 282.3 13.1 279 27.3
2003-09-22 07:26:48 51°20.66 2°41.35 282.3 13.1 279 28
2003-09-22 07:26:54 51°20.67 2°41.32 282.5 13.1 279 28.3
2003-09-22 07:26:58 51°20.67 2°41.3 282.3 13.1 279 28.7
2003-09-22 07:27:04 51°20.67 2°41.26 282.5 13.1 279 28.8
2003-09-22 07:27:08 51°20.67 2°41.24 282.3 13.1 278 28.7
2003-09-22 07:27:14 51°20.68 2°41.2 281.7 13.1 279 28.6
2003-09-22 07:27:18 51°20.68 2°41.18 281.9 13.1 279 28.9
2003-09-22 07:27:24 51°20.68 2°41.15 282.3 13.1 280 28.8
2003-09-22 07:27:28 51°20.69 2°41.12 282.7 13.1 280 28.5
2003-09-22 07:27:34 51°20.69 2°41.09 282.9 13.1 279 28.6
2003-09-22 07:27:38 51°20.69 2°41.07 282.4 13.1 279 28.5
2003-09-22 07:27:44 51°20.69 2°41.03 281.9 13.1 278 28.6
2003-09-22 07:27:48 51°20.7 2°41.01 281.4 13.1 278 28.7
2003-09-22 07:27:54 51°20.7 2°40.98 281.4 13.1 278 28.8
2003-09-22 07:27:58 51°20.7 2°40.95 281.6 13.1 279 28.4
2003-09-22 07:28:04 51°20.71 2°40.92 282.1 13.1 279 28.3
2003-09-22 07:28:08 51°20.71 2°40.89 282.3 13.1 279 28.1
2003-09-22 07:28:14 51°20.71 2°40.86 282.3 13.1 279 28.3
2003-09-22 07:28:18 51°20.71 2°40.84 282.2 13.1 278 28.3
2003-09-22 07:28:24 51°20.72 2°40.8 281.9 13.1 278 28.2
2003-09-22 07:28:30 51°20.72 2°40.77 281.6 13.2 278 28.4
2003-09-22 07:28:34 51°20.72 2°40.75 281.4 13.2 278 28.3
2003-09-22 07:28:38 51°20.72 2°40.72 281.7 13.2 278 27.9
2003-09-22 07:28:44 51°20.73 2°40.69 282.1 13.2 278 27.5
2003-09-22 07:28:48 51°20.73 2°40.66 282 13.1 279 27.2
2003-09-22 07:28:54 51°20.73 2°40.63 282.2 13.1 279 27.5
2003-09-22 07:28:58 51°20.73 2°40.61 282 13.2 278 27.7
2003-09-22 07:29:04 51°20.74 2°40.57 281.4 13.2 277 27.7
2003-09-22 07:29:08 51°20.74 2°40.55 281 13.1 277 27.9
2003-09-22 07:29:14 51°20.74 2°40.51 280.8 13.2 277 28
2003-09-22 07:29:18 51°20.74 2°40.49 280.8 13.2 277 28.2
2003-09-22 07:29:24 51°20.75 2°40.46 280.8 13.2 278 28.3
2003-09-22 07:29:28 51°20.75 2°40.43 281.1 13.2 278 28.3
2003-09-22 07:29:34 51°20.75 2°40.4 281.4 13.2 278 28.3
2003-09-22 07:29:38 51°20.75 2°40.37 281.3 13.2 278 28.4
2003-09-22 07:29:44 51°20.76 2°40.34 281.5 13.2 277 28.3
2003-09-22 07:29:48 51°20.76 2°40.32 281.4 13.2 278 27.8
2003-09-22 07:29:54 51°20.76 2°40.28 281.6 13.2 278 27.4
2003-09-22 07:29:58 51°20.76 2°40.26 281.4 13.2 277 27.4
2003-09-22 07:30:02 51°20.77 2°40.24 281.6 13.2 278 27.4
2003-09-22 07:30:08 51°20.77 2°40.2 281.5 13.2 278 27.6
2003-09-22 07:30:14 51°20.77 2°40.17 281.6 13.2 278 27.7
2003-09-22 07:30:18 51°20.77 2°40.14 281.2 13.2 277 28.1
2003-09-22 07:30:24 51°20.78 2°40.11 281.1 13.1 277 28.2
2003-09-22 07:30:28 51°20.78 2°40.09 281.1 13.2 276 28.3
2003-09-22 07:30:34 51°20.78 2°40.05 280.6 13.2 278 28.4
2003-09-22 07:30:38 51°20.78 2°40.03 281.1 13.1 277 28.4
2003-09-22 07:30:42 51°20.78 2°40 281 13.2 278 28.2
2003-09-22 07:30:48 51°20.79 2°39.97 281.3 13.2 277 28
2003-09-22 07:30:54 51°20.79 2°39.93 281 13.2 277 27.9
2003-09-22 07:30:58 51°20.79 2°39.91 280.9 13.2 277 27.7
2003-09-22 07:31:04 51°20.79 2°39.88 280.9 13.2 277 27.5
2003-09-22 07:31:10 51°20.8 2°39.84 280.8 13.2 277 27.3
2003-09-22 07:31:14 51°20.8 2°39.82 280.8 13.2 277 27.4
2003-09-22 07:31:18 51°20.8 2°39.8 280.9 13.2 277 27.3
2003-09-22 07:31:22 51°20.8 2°39.77 280.9 13.2 277 27.2
2003-09-22 07:31:28 51°20.81 2°39.74 281 13.2 277 26.7
2003-09-22 07:31:34 51°20.81 2°39.7 281.2 13.2 278 26.3
2003-09-22 07:31:38 51°20.81 2°39.68 281.5 13.2 278 26.7
2003-09-22 07:31:44 51°20.81 2°39.64 281.6 13.2 278 26.4
2003-09-22 07:31:48 51°20.81 2°39.62 281.7 13.2 278 26.5
2003-09-22 07:31:54 51°20.82 2°39.59 281.8 13.1 278 26.4
2003-09-22 07:31:58 51°20.82 2°39.56 281.7 13.2 278 26.2
2003-09-22 07:32:02 51°20.82 2°39.54 281.7 13.1 278 25.2
2003-09-22 07:32:08 51°20.82 2°39.51 281.3 13.1 277 26.2
2003-09-22 07:32:14 51°20.83 2°39.47 280.9 13.1 277 26.4
2003-09-22 07:32:18 51°20.83 2°39.45 280.7 13.1 277 26.6
2003-09-22 07:32:24 51°20.83 2°39.41 281.1 13.1 277 26.6
2003-09-22 07:32:30 51°20.83 2°39.38 281.4 13.1 278 26.4
2003-09-22 07:32:34 51°20.84 2°39.36 281.6 13.1 278 26.5
2003-09-22 07:32:38 51°20.84 2°39.33 281.2 13.1 277 26.4
2003-09-22 07:32:42 51°20.84 2°39.31 281.2 13.1 276 26
2003-09-22 07:32:48 51°20.84 2°39.28 280.8 13.1 277 26.2
2003-09-22 07:32:54 51°20.85 2°39.24 280.6 13.1 276 26.5
2003-09-22 07:33:00 51°20.85 2°39.21 280.9 13.1 278 26.8
2003-09-22 07:33:04 51°20.85 2°39.18 280.9 13.1 277 26.9
2003-09-22 07:33:08 51°20.85 2°39.16 281.2 13.1 278 26.9
2003-09-22 07:33:14 51°20.85 2°39.13 281.5 13 277 26.8
2003-09-22 07:33:18 51°20.86 2°39.1 281.8 13 278 26.6
2003-09-22 07:33:24 51°20.86 2°39.07 281.8 13 277 26.2
2003-09-22 07:33:28 51°20.86 2°39.05 281.9 13 279 26.1
2003-09-22 07:33:34 51°20.86 2°39.01 281.8 13 278 26.6
2003-09-22 07:33:38 51°20.87 2°38.99 281.7 13 279 26.8
2003-09-22 07:33:44 51°20.87 2°38.96 282.3 13 278 26.6
2003-09-22 07:33:48 51°20.87 2°38.93 282.2 13 278 26.4
2003-09-22 07:33:54 51°20.88 2°38.9 282 13 278 24.8
2003-09-22 07:33:58 51°20.88 2°38.88 281.7 13 278 26.4
2003-09-22 07:34:04 51°20.88 2°38.84 281.5 13 278 26.8
2003-09-22 07:34:08 51°20.88 2°38.82 281.1 13 278 26.6
2003-09-22 07:34:14 51°20.88 2°38.78 281 13 277 26.6
2003-09-22 07:34:18 51°20.89 2°38.76 280.5 13.1 277 26.3
2003-09-22 07:34:24 51°20.89 2°38.73 280.9 13.1 277 25.5
2003-09-22 07:34:28 51°20.89 2°38.7 280.9 13 277 26.1
2003-09-22 07:34:34 51°20.89 2°38.67 281.1 13.1 277 26.6
2003-09-22 07:34:38 51°20.9 2°38.65 281.4 13.1 278 26.4
2003-09-22 07:34:44 51°20.9 2°38.61 282 13 278 26.2
2003-09-22 07:34:48 51°20.9 2°38.59 282.1 13.1 278 26.3
2003-09-22 07:34:54 51°20.9 2°38.56 281.7 13.1 278 26.2
2003-09-22 07:34:58 51°20.91 2°38.53 281.6 13 277 26.5
2003-09-22 07:35:04 51°20.91 2°38.5 281.1 13 277 26.1
2003-09-22 07:35:08 51°20.91 2°38.47 280.8 13 277 26.3
2003-09-22 07:35:14 51°20.91 2°38.44 280.8 13 277 26.2
2003-09-22 07:35:18 51°20.91 2°38.42 280.7 13 277 25.3
2003-09-22 07:35:24 51°20.92 2°38.38 281 13 277 25.9
2003-09-22 07:35:28 51°20.92 2°38.36 281.1 13 277 26.2
2003-09-22 07:35:34 51°20.92 2°38.33 281.4 13 278 25.8
2003-09-22 07:35:38 51°20.92 2°38.3 281.5 13 278 25.7
2003-09-22 07:35:44 51°20.93 2°38.27 281.7 13 278 25.1
2003-09-22 07:35:50 51°20.93 2°38.24 281.8 13 278 25.2
2003-09-22 07:35:54 51°20.93 2°38.21 281.3 13 277 26.1
2003-09-22 07:35:58 51°20.93 2°38.19 280.6 13 277 25.5
2003-09-22 07:36:04 51°20.94 2°38.16 280.6 13 277 26.2
2003-09-22 07:36:08 51°20.94 2°38.13 280.4 13 277 26.2
2003-09-22 07:36:14 51°20.94 2°38.1 280.6 13 277 26.3
2003-09-22 07:36:18 51°20.94 2°38.08 280.9 13 278 26.3
2003-09-22 07:36:24 51°20.94 2°38.04 281.3 13.1 278 25.5
2003-09-22 07:36:28 51°20.95 2°38.02 281.6 13 279 24.8
2003-09-22 07:36:34 51°20.95 2°37.98 281.9 13 277 25.4
2003-09-22 07:36:38 51°20.95 2°37.96 281.3 13 277 25.9
2003-09-22 07:36:44 51°20.95 2°37.93 281.2 13 277 25.6
2003-09-22 07:36:48 51°20.96 2°37.9 281 13 277 24.9
2003-09-22 07:36:54 51°20.96 2°37.87 280.9 13 278 26.3
2003-09-22 07:36:58 51°20.96 2°37.85 281.4 13 277 26.4
2003-09-22 07:37:04 51°20.96 2°37.81 281.5 13 278 26.7
2003-09-22 07:37:08 51°20.97 2°37.79 281.5 13 277 26.5
2003-09-22 07:37:14 51°20.97 2°37.76 281.2 13 277 26.4
2003-09-22 07:37:18 51°20.97 2°37.73 281 13 277 26.4
2003-09-22 07:37:24 51°20.97 2°37.7 281 13 278 26.5
2003-09-22 07:37:28 51°20.97 2°37.68 281.5 13 278 25.1
2003-09-22 07:37:34 51°20.98 2°37.64 281.2 13 278 26.4
2003-09-22 07:37:38 51°20.98 2°37.62 281.2 13 277 26.3
2003-09-22 07:37:44 51°20.98 2°37.58 281 13 277 26.7
2003-09-22 07:37:50 51°20.98 2°37.55 280.6 13 277 26.6
2003-09-22 07:37:54 51°20.99 2°37.53 280.6 13 278 26.6
2003-09-22 07:37:58 51°20.99 2°37.5 280.8 13 278 25.6
2003-09-22 07:38:04 51°20.99 2°37.47 281.3 13 278 26.2
2003-09-22 07:38:10 51°20.99 2°37.44 281.4 13 278 26.5
2003-09-22 07:38:14 51°21 2°37.41 281.5 13 278 25.8
2003-09-22 07:38:18 51°21 2°37.39 281.7 13 278 25.5
2003-09-22 07:38:24 51°21 2°37.36 281.5 13 278 26.4
2003-09-22 07:38:28 51°21 2°37.33 281.5 13 277 25.5
2003-09-22 07:38:34 51°21.01 2°37.3 280.9 13 278 25.6
2003-09-22 07:38:38 51°21.01 2°37.28 281.1 13.1 277 25.9
2003-09-22 07:38:44 51°21.01 2°37.24 280.9 13.1 277 24.6
2003-09-22 07:38:48 51°21.01 2°37.22 280.8 13 277 25.6
2003-09-22 07:38:54 51°21.02 2°37.18 280.8 13 278 25.6
2003-09-22 07:38:58 51°21.02 2°37.16 280.9 13.1 277 24
2003-09-22 07:39:04 51°21.02 2°37.13 281.1 13 278 25.4
2003-09-22 07:39:08 51°21.02 2°37.1 281.6 13 278 25.2
2003-09-22 07:39:14 51°21.03 2°37.07 281.5 13 278 24.3
2003-09-22 07:39:18 51°21.03 2°37.05 281.3 13.1 278 25.5
2003-09-22 07:39:24 51°21.03 2°37.01 281 13.1 277 25.4
2003-09-22 07:39:28 51°21.03 2°36.99 281 13 278 23.8
2003-09-22 07:39:34 51°21.04 2°36.95 281 13 277 25.2
2003-09-22 07:39:38 51°21.04 2°36.93 281.1 13 278 26
2003-09-22 07:39:44 51°21.04 2°36.9 281.4 13 277 26
2003-09-22 07:39:48 51°21.04 2°36.87 280.8 13 278 25.1
2003-09-22 07:39:54 51°21.05 2°36.84 281 13 277 24.3
2003-09-22 07:39:58 51°21.05 2°36.82 280.9 13 278 26
2003-09-22 07:40:04 51°21.05 2°36.78 281.4 13 278 26.4
2003-09-22 07:40:08 51°21.05 2°36.76 281.4 13 279 26.8
2003-09-22 07:40:14 51°21.06 2°36.73 281.6 13 278 27.2
2003-09-22 07:40:18 51°21.06 2°36.7 281.6 13 278 27.4
2003-09-22 07:40:24 51°21.06 2°36.67 281.6 13 279 26.9
2003-09-22 07:40:28 51°21.06 2°36.65 281.6 13 279 25.7
2003-09-22 07:40:34 51°21.07 2°36.61 281.9 13 278 27.3
2003-09-22 07:40:38 51°21.07 2°36.59 281.9 13 279 27.9
2003-09-22 07:40:44 51°21.07 2°36.55 281.8 13 278 28.5
2003-09-22 07:40:48 51°21.08 2°36.53 281.9 13 279 28.6
2003-09-22 07:40:54 51°21.08 2°36.5 281.7 13 279 27.2
2003-09-22 07:40:58 51°21.08 2°36.48 281.9 13 278 27
2003-09-22 07:41:04 51°21.08 2°36.44 281.7 13 279 28.3
2003-09-22 07:41:10 51°21.09 2°36.41 282 13 278 28.8
2003-09-22 07:41:14 51°21.09 2°36.38 281.7 13 279 28
2003-09-22 07:41:18 51°21.09 2°36.36 281.4 13 278 26.9
2003-09-22 07:41:24 51°21.09 2°36.33 281.2 13 278 28.8
2003-09-22 07:41:28 51°21.1 2°36.3 281.1 13 278 29.9
2003-09-22 07:41:34 51°21.1 2°36.27 280.9 13.1 278 30.2
2003-09-22 07:41:38 51°21.1 2°36.25 280.8 13 277 27.7
2003-09-22 07:41:44 51°21.1 2°36.21 280.7 13 278 28
2003-09-22 07:41:48 51°21.11 2°36.19 280.9 13.1 279 28.9
2003-09-22 07:41:54 51°21.11 2°36.16 281.3 13 278 29.9
2003-09-22 07:41:58 51°21.11 2°36.13 281.5 13 278 30.6
2003-09-22 07:42:04 51°21.11 2°36.1 281.4 13 278 31
2003-09-22 07:42:10 51°21.12 2°36.06 281.6 13 277 32.1
2003-09-22 07:42:14 51°21.12 2°36.04 281 13 278 32.5
2003-09-22 07:42:18 51°21.12 2°36.02 281.2 13 278 30.3
2003-09-22 07:42:24 51°21.12 2°35.98 281.3 13.1 278 30.6
2003-09-22 07:42:28 51°21.13 2°35.96 281.1 13.1 279 32.5
2003-09-22 07:42:34 51°21.13 2°35.93 281.6 13 279 33.2
2003-09-22 07:42:38 51°21.13 2°35.9 281.6 13 278 32.9
2003-09-22 07:42:44 51°21.14 2°35.87 280.9 13.2 279 31.7
2003-09-22 07:42:50 51°21.14 2°35.84 281.4 13.1 278 31.8
2003-09-22 07:42:54 51°21.14 2°35.81 281.2 13.1 278 32.4
2003-09-22 07:42:58 51°21.14 2°35.79 280.8 13.2 278 30.3
2003-09-22 07:43:04 51°21.15 2°35.75 280.7 13.1 278 30.6
2003-09-22 07:43:08 51°21.15 2°35.73 280.4 13.1 278 30.2
2003-09-22 07:43:14 51°21.15 2°35.7 280.5 13.1 278 32.1
2003-09-22 07:43:18 51°21.15 2°35.67 280.5 13.1 278 33.4
2003-09-22 07:43:24 51°21.16 2°35.64 280.9 13.1 279 34.4
2003-09-22 07:43:28 51°21.16 2°35.62 281.4 13.1 279 35.1
2003-09-22 07:43:34 51°21.16 2°35.58 281.4 13.1 278 34.2
2003-09-22 07:43:38 51°21.16 2°35.56 280.8 13.1 278 34.4
2003-09-22 07:43:44 51°21.17 2°35.52 280.9 13.1 278 35.3
2003-09-22 07:43:48 51°21.17 2°35.5 281.3 13.1 279 34.7
2003-09-22 07:43:54 51°21.17 2°35.47 281.4 13.1 278 35.6
2003-09-22 07:43:58 51°21.17 2°35.44 280.8 13.1 278 36.3
2003-09-22 07:44:04 51°21.18 2°35.41 280.9 13.1 278 36.5
2003-09-22 07:44:08 51°21.18 2°35.39 280.6 13.2 278 37
2003-09-22 07:44:14 51°21.18 2°35.35 280.4 13.2 278 36.5
2003-09-22 07:44:18 51°21.18 2°35.33 280.9 13.1 278 35.4
2003-09-22 07:44:24 51°21.19 2°35.29 281.2 13.1 279 35.7
2003-09-22 07:44:28 51°21.19 2°35.27 281.6 13.1 278 35.5
2003-09-22 07:44:34 51°21.19 2°35.24 281.2 13.1 278 36.1
2003-09-22 07:44:38 51°21.2 2°35.21 280.9 13.1 279 36.3
2003-09-22 07:44:44 51°21.2 2°35.18 281 13.1 278 36.6
2003-09-22 07:44:48 51°21.2 2°35.16 281.1 13.1 279 36.8
2003-09-22 07:44:54 51°21.2 2°35.12 281.5 13.1 279 37.1
2003-09-22 07:44:58 51°21.21 2°35.1 281.4 13.1 278 37.1
2003-09-22 07:45:04 51°21.21 2°35.07 281.2 13.1 278 37
2003-09-22 07:45:10 51°21.21 2°35.03 281.1 13.1 278 36.8
2003-09-22 07:45:14 51°21.21 2°35.01 281.1 13.1 278 36
2003-09-22 07:45:18 51°21.22 2°34.98 281.3 13.2 279 35.4
2003-09-22 07:45:24 51°21.22 2°34.95 281.6 13.1 279 34.9
2003-09-22 07:45:28 51°21.22 2°34.93 281.6 13.1 278 34.5
2003-09-22 07:45:34 51°21.22 2°34.89 281.5 13.1 279 34.6
2003-09-22 07:45:38 51°21.23 2°34.87 281.5 13.1 279 34.7
2003-09-22 07:45:44 51°21.23 2°34.84 281.1 13.1 278 34
2003-09-22 07:45:48 51°21.23 2°34.81 281.1 13.1 279 33.8
2003-09-22 07:45:54 51°21.24 2°34.78 281.8 13 279 34.3
2003-09-22 07:45:58 51°21.24 2°34.76 281.6 13.1 279 34.3
2003-09-22 07:46:04 51°21.24 2°34.72 281.3 13.1 279 33.8
2003-09-22 07:46:08 51°21.24 2°34.7 281.3 13.1 279 33.6
2003-09-22 07:46:14 51°21.25 2°34.66 280.8 13.1 278 33.2
2003-09-22 07:46:18 51°21.25 2°34.64 281 13.1 279 32.3
2003-09-22 07:46:24 51°21.25 2°34.61 281.6 13 279 32.3
2003-09-22 07:46:30 51°21.26 2°34.57 281.6 13.1 279 32
2003-09-22 07:46:34 51°21.26 2°34.55 281.3 13.1 278 32.6
2003-09-22 07:46:38 51°21.26 2°34.53 281.1 13.1 279 33
2003-09-22 07:46:44 51°21.26 2°34.49 281.3 13.1 279 32.9
2003-09-22 07:46:48 51°21.26 2°34.47 281.3 13.1 279 33.1
2003-09-22 07:46:54 51°21.27 2°34.44 281.6 13 279 33
2003-09-22 07:46:58 51°21.27 2°34.41 281.5 13.1 278 32.5
2003-09-22 07:47:04 51°21.27 2°34.38 280.9 13.1 279 32.4
2003-09-22 07:47:08 51°21.28 2°34.36 281 13.1 279 32.2
2003-09-22 07:47:14 51°21.28 2°34.32 281.2 13.1 279 32.2
2003-09-22 07:47:18 51°21.28 2°34.3 281.5 13 279 32.1
2003-09-22 07:47:24 51°21.28 2°34.27 281.4 13 279 32.1
2003-09-22 07:47:30 51°21.29 2°34.23 280.9 13 278 32.1
2003-09-22 07:47:34 51°21.29 2°34.21 280.6 13 278 32.3
2003-09-22 07:47:38 51°21.29 2°34.19 280.9 13.1 278 32.1
2003-09-22 07:47:44 51°21.29 2°34.15 281.2 13 280 32.9
2003-09-22 07:47:48 51°21.3 2°34.13 281.5 13 278 31.9
2003-09-22 07:47:54 51°21.3 2°34.1 281.4 13.1 279 32.8
2003-09-22 07:47:58 51°21.3 2°34.07 281.4 13 279 33.4
2003-09-22 07:48:04 51°21.31 2°34.04 281.4 13.1 279 34
2003-09-22 07:48:08 51°21.31 2°34.02 281 13.1 279 34.3
2003-09-22 07:48:14 51°21.31 2°33.98 281.3 13 279 34.2
2003-09-22 07:48:18 51°21.31 2°33.96 281.4 13.1 280 34.4
2003-09-22 07:48:22 51°21.32 2°33.94 281.4 13 280 34.3
2003-09-22 07:48:28 51°21.32 2°33.9 282.8 13.1 283 33.8
2003-09-22 07:48:34 51°21.33 2°33.87 284.6 13.1 284 33.4
2003-09-22 07:48:40 51°21.33 2°33.83 286.3 13.1 287 33.6
2003-09-22 07:48:44 51°21.34 2°33.81 288 13.1 288 33.7
2003-09-22 07:48:48 51°21.34 2°33.79 290.5 13.1 291 34
2003-09-22 07:48:54 51°21.35 2°33.76 292.6 13.1 294 33.2
2003-09-22 07:48:58 51°21.36 2°33.74 294.6 13.1 294 32.9
2003-09-22 07:49:04 51°21.37 2°33.71 296.8 13.2 298 33.1
2003-09-22 07:49:08 51°21.38 2°33.69 300.1 13.1 302 33.4
2003-09-22 07:49:14 51°21.39 2°33.66 303.1 13.1 305 33.2
2003-09-22 07:49:18 51°21.4 2°33.64 305.7 13.2 306 33.3
2003-09-22 07:49:24 51°21.41 2°33.61 307.5 13.2 309 33.2
2003-09-22 07:49:28 51°21.42 2°33.59 310.4 13.1 311 32.9
2003-09-22 07:49:34 51°21.44 2°33.57 314.2 13.2 316 32.7
2003-09-22 07:49:38 51°21.45 2°33.55 318.1 13.2 318 31.8
2003-09-22 07:49:44 51°21.46 2°33.53 320.8 13.2 321 31.4
2003-09-22 07:49:48 51°21.47 2°33.52 323 13.2 324 31
2003-09-22 07:49:54 51°21.49 2°33.5 325.3 13.2 325 30.7
2003-09-22 07:49:58 51°21.5 2°33.48 326.4 13.2 325 30.6
2003-09-22 07:50:04 51°21.52 2°33.46 327.3 13.2 326 30.5
2003-09-22 07:50:08 51°21.54 2°33.45 329.3 13.3 329 30.3
2003-09-22 07:50:14 51°21.55 2°33.43 330.8 13.4 329 29.9
2003-09-22 07:50:18 51°21.57 2°33.42 331.2 13.3 329 28.7
2003-09-22 07:50:24 51°21.59 2°33.4 332.1 13.3 330 28.8
2003-09-22 07:50:28 51°21.6 2°33.39 332.4 13.2 331 28.4
2003-09-22 07:50:34 51°21.62 2°33.37 333.1 13.2 331 27.7
2003-09-22 07:50:38 51°21.63 2°33.36 333.3 13.2 330 27.4
2003-09-22 07:50:44 51°21.65 2°33.35 333.5 13.3 331 26.8
2003-09-22 07:50:48 51°21.66 2°33.33 333.8 13.3 331 26.4
2003-09-22 07:50:54 51°21.68 2°33.32 334 13.3 332 26.3
2003-09-22 07:50:58 51°21.7 2°33.31 334.5 13.4 332 26.1
2003-09-22 07:51:04 51°21.72 2°33.29 335.3 13.4 331 25.8
2003-09-22 07:51:08 51°21.73 2°33.28 334.1 13.4 332 25.4
2003-09-22 07:51:14 51°21.75 2°33.26 334.7 13.4 332 24.7
2003-09-22 07:51:18 51°21.76 2°33.25 335.3 13.4 334 24.3
2003-09-22 07:51:24 51°21.78 2°33.23 336.3 13.5 333 24.5
2003-09-22 07:51:28 51°21.8 2°33.22 336.4 13.4 335 24.6
2003-09-22 07:51:34 51°21.82 2°33.21 337.5 13.5 335 24.3
2003-09-22 07:51:38 51°21.83 2°33.2 338.1 13.4 337 24.6
2003-09-22 07:51:44 51°21.85 2°33.19 338.7 13.3 336 24.8
2003-09-22 07:51:48 51°21.86 2°33.18 339.2 13.4 339 25.2
2003-09-22 07:51:54 51°21.88 2°33.16 340.4 13.4 338 24.8
2003-09-22 07:51:58 51°21.9 2°33.16 341.8 13.5 340 25.1
2003-09-22 07:52:04 51°21.92 2°33.14 342 13.6 339 25.6
2003-09-22 07:52:08 51°21.93 2°33.13 342.3 13.6 340 26.4
2003-09-22 07:52:14 51°21.96 2°33.12 342.9 13.6 339 27.2
2003-09-22 07:52:18 51°21.97 2°33.11 342.4 13.6 340 27.6
2003-09-22 07:52:24 51°21.99 2°33.1 342.6 13.6 341 28.7
2003-09-22 07:52:28 51°22.01 2°33.09 343.2 13.6 341 29.5
2003-09-22 07:52:34 51°22.03 2°33.08 344.7 13.6 343 29.8
2003-09-22 07:52:38 51°22.04 2°33.08 345.4 13.6 344 29.7
2003-09-22 07:52:44 51°22.06 2°33.07 347.6 13.7 348 30.6
2003-09-22 07:52:48 51°22.08 2°33.06 350.5 13.7 350 31
2003-09-22 07:52:54 51°22.1 2°33.06 352.1 13.6 351 31.4
2003-09-22 07:52:58 51°22.12 2°33.05 353 13.6 350 32
2003-09-22 07:53:04 51°22.14 2°33.05 354 13.6 352 32.6
2003-09-22 07:53:10 51°22.16 2°33.05 354.8 13.7 354 32.9
2003-09-22 07:53:14 51°22.18 2°33.04 355.3 13.7 353 32.9
2003-09-22 07:53:18 51°22.19 2°33.04 356.2 13.8 355 33.1
2003-09-22 07:53:24 51°22.21 2°33.04 356.6 13.8 353 33.1
2003-09-22 07:53:28 51°22.23 2°33.03 356.3 13.8 353 32.9
2003-09-22 07:53:34 51°22.25 2°33.03 355.4 13.6 353 33
2003-09-22 07:53:38 51°22.27 2°33.02 355.6 13.7 354 32.8
2003-09-22 07:53:44 51°22.29 2°33.02 355.8 13.7 354 32.7
2003-09-22 07:53:48 51°22.3 2°33.02 356.4 13.7 355 32.7
2003-09-22 07:53:54 51°22.33 2°33.02 357.1 13.7 355 32.6
2003-09-22 07:53:58 51°22.34 2°33.01 357.1 13.7 354 32.6
2003-09-22 07:54:04 51°22.37 2°33.01 356.2 13.7 354 32.6
2003-09-22 07:54:08 51°22.38 2°33.01 355.6 13.6 354 32.4
2003-09-22 07:54:14 51°22.4 2°33 355.7 13.6 353 32.5
2003-09-22 07:54:18 51°22.42 2°33 355.2 13.7 352 32.7
2003-09-22 07:54:24 51°22.44 2°32.99 354.9 13.7 351 32.8
2003-09-22 07:54:28 51°22.46 2°32.99 354.1 13.7 351 32.5
2003-09-22 07:54:34 51°22.48 2°32.98 352.8 13.8 349 32.7
2003-09-22 07:54:38 51°22.49 2°32.98 351.9 13.8 348 32.8
2003-09-22 07:54:44 51°22.52 2°32.97 351.2 13.7 348 32.6
2003-09-22 07:54:48 51°22.53 2°32.96 350.5 13.7 347 32.5
2003-09-22 07:54:54 51°22.55 2°32.96 349.9 13.7 347 32.7
2003-09-22 07:54:58 51°22.57 2°32.95 349.7 13.7 347 33.1
2003-09-22 07:55:04 51°22.59 2°32.94 349.2 13.6 344 32.7
2003-09-22 07:55:10 51°22.61 2°32.93 347.7 13.7 344 33.5
2003-09-22 07:55:14 51°22.63 2°32.93 346.9 13.6 343 33.1
2003-09-22 07:55:18 51°22.64 2°32.92 346.1 13.6 344 33.3
2003-09-22 07:55:24 51°22.66 2°32.91 345.4 13.5 343 32.9
2003-09-22 07:55:28 51°22.68 2°32.9 344.9 13.5 344 32.7
2003-09-22 07:55:34 51°22.7 2°32.89 345.5 13.5 343 32.5
2003-09-22 07:55:38 51°22.71 2°32.88 344.7 13.5 343 32.5
2003-09-22 07:55:44 51°22.73 2°32.87 344.6 13.4 343 33.2
2003-09-22 07:55:48 51°22.75 2°32.87 344.8 13.5 344 33.3
2003-09-22 07:55:54 51°22.77 2°32.86 345.9 13.5 345 32.9
2003-09-22 07:55:58 51°22.78 2°32.85 346.9 13.6 346 33.5
2003-09-22 07:56:04 51°22.81 2°32.84 347.1 13.7 345 33.4
2003-09-22 07:56:08 51°22.82 2°32.84 346.7 13.7 344 33.2
2003-09-22 07:56:14 51°22.84 2°32.83 346 13.6 344 33.2
2003-09-22 07:56:18 51°22.86 2°32.82 345.4 13.6 344 33
2003-09-22 07:56:24 51°22.88 2°32.81 345.6 13.6 344 32.7
2003-09-22 07:56:28 51°22.89 2°32.8 345.4 13.6 343 32
2003-09-22 07:56:34 51°22.91 2°32.79 345.7 13.6 344 31.7
2003-09-22 07:56:38 51°22.93 2°32.79 345.7 13.6 343 32.7
2003-09-22 07:56:44 51°22.95 2°32.78 345.6 13.6 344 31.8
2003-09-22 07:56:48 51°22.97 2°32.77 346.2 13.6 344 32.7
2003-09-22 07:56:54 51°22.99 2°32.76 346.5 13.6 344 33.5
2003-09-22 07:56:58 51°23 2°32.75 344.5 13.4 337 33.4
2003-09-22 07:57:04 51°23.02 2°32.74 339.6 13.3 334 33.6
2003-09-22 07:57:08 51°23.03 2°32.72 335.6 13.1 328 33.6
2003-09-22 07:57:14 51°23.05 2°32.7 331.7 13 324 34.6
2003-09-22 07:57:18 51°23.06 2°32.69 324.9 12.9 320 34.1
2003-09-22 07:57:24 51°23.08 2°32.66 319.2 12.7 312 33.4
2003-09-22 07:57:28 51°23.09 2°32.65 315.2 12.7 309 32.9
2003-09-22 07:57:34 51°23.1 2°32.62 310.8 12.7 305 32.4
2003-09-22 07:57:38 51°23.11 2°32.6 307.7 12.7 304 32
2003-09-22 07:57:44 51°23.12 2°32.57 305.3 12.9 302 33.3
2003-09-22 07:57:50 51°23.13 2°32.54 304.3 13 301 32.6
2003-09-22 07:57:54 51°23.14 2°32.52 303.3 13 300 32.1
2003-09-22 07:57:58 51°23.14 2°32.5 302.5 13 300 32.1
2003-09-22 07:58:04 51°23.15 2°32.47 301.9 13 299 32.6
2003-09-22 07:58:08 51°23.16 2°32.45 301.3 12.9 299 32.7
2003-09-22 07:58:14 51°23.17 2°32.42 301 12.9 296 32.5
2003-09-22 07:58:18 51°23.18 2°32.4 297.4 12.9 292 31.6